Time;durP1;ratioP1;P1;durP2;ratioP2;P2;SDS_P1;SDS_P2;PMS_P1;PMS_P2;Temp;Humidity;BMP_temperature;BMP_pressure;BME280_temperature;BME280_humidity;BME280_pressure;Samples;Min_cycle;Max_cycle;Signal;HPM_P1;HPM_P2
2023/03/14 00:02:21;;;;;;;1.27;0.40;;;17.00;72.20;;;;;;4984659;28;20042;-78
2023/03/14 00:04:46;;;;;;;0.40;0.40;;;16.90;72.10;;;;;;4982666;28;20479;-78
2023/03/14 00:07:12;;;;;;;0.93;0.57;;;17.00;72.10;;;;;;4986742;28;20154;-79
2023/03/14 00:09:38;;;;;;;0.55;0.45;;;17.00;72.10;;;;;;4989773;28;20557;-79
2023/03/14 00:12:04;;;;;;;0.82;0.60;;;17.00;72.00;;;;;;5018569;28;20108;-78
2023/03/14 00:14:31;;;;;;;0.60;0.43;;;17.00;72.00;;;;;;4983870;28;20073;-79
2023/03/14 00:16:56;;;;;;;0.63;0.40;;;17.00;72.30;;;;;;4986402;28;20061;-78
2023/03/14 00:19:22;;;;;;;0.47;0.45;;;16.90;72.10;;;;;;4988099;28;20052;-79
2023/03/14 00:21:47;;;;;;;0.73;0.60;;;16.90;72.20;;;;;;4989071;28;20053;-78
2023/03/14 00:24:13;;;;;;;0.80;0.80;;;16.90;72.10;;;;;;4984615;28;20054;-79
2023/03/14 00:26:38;;;;;;;0.52;0.52;;;16.90;72.30;;;;;;4985336;28;20209;-78
2023/03/14 00:29:04;;;;;;;0.50;0.50;;;16.90;72.30;;;;;;4987500;28;20459;-78
2023/03/14 00:31:30;;;;;;;0.57;0.57;;;16.90;72.40;;;;;;4996528;28;21048;-79
2023/03/14 00:33:55;;;;;;;0.52;0.52;;;16.90;72.00;;;;;;5002789;28;20041;-78
2023/03/14 00:36:21;;;;;;;0.80;0.80;;;16.90;72.50;;;;;;5005697;28;20403;-78
2023/03/14 00:38:48;;;;;;;0.90;0.60;;;16.90;72.60;;;;;;5004624;28;20097;-78
2023/03/14 00:41:15;;;;;;;0.65;0.65;;;16.90;72.00;;;;;;5002839;28;20048;-78
2023/03/14 00:43:41;;;;;;;0.60;0.60;;;16.90;72.50;;;;;;5002466;28;20397;-77
2023/03/14 00:46:06;;;;;;;1.90;0.43;;;16.90;72.30;;;;;;5004082;28;20049;-78
2023/03/14 00:48:32;;;;;;;0.50;0.43;;;16.90;72.10;;;;;;5005304;28;20114;-78
2023/03/14 00:50:58;;;;;;;0.43;0.40;;;16.90;71.90;;;;;;4999497;28;20040;-78
2023/03/14 00:53:23;;;;;;;0.40;0.40;;;16.90;71.90;;;;;;5019426;28;20033;-78
2023/03/14 00:55:49;;;;;;;0.50;0.38;;;16.90;72.20;;;;;;5004802;28;20095;-78
2023/03/14 00:58:15;;;;;;;0.40;0.40;;;16.90;72.00;;;;;;5004595;28;20061;-78
2023/03/14 01:00:41;;;;;;;0.45;0.40;;;16.90;72.20;;;;;;5005982;28;20038;-78
2023/03/14 01:03:08;;;;;;;0.80;0.52;;;16.90;72.10;;;;;;5003570;28;20026;-78
2023/03/14 01:05:34;;;;;;;0.55;0.50;;;16.90;71.90;;;;;;5002066;28;20081;-78
2023/03/14 01:07:59;;;;;;;10.57;0.68;;;16.90;72.30;;;;;;5004696;28;20572;-77
2023/03/14 01:10:25;;;;;;;0.70;0.35;;;16.90;72.50;;;;;;5004699;28;20065;-78
2023/03/14 01:12:51;;;;;;;0.63;0.20;;;16.90;72.30;;;;;;5013285;28;20068;-78
2023/03/14 01:15:16;;;;;;;0.70;0.50;;;16.90;72.40;;;;;;5002047;28;20107;-78
2023/03/14 01:17:42;;;;;;;0.82;0.30;;;16.80;72.40;;;;;;5001696;28;20534;-78
2023/03/14 01:20:09;;;;;;;0.32;0.32;;;16.90;71.90;;;;;;5002761;28;20061;-78
2023/03/14 01:22:36;;;;;;;1.10;0.30;;;16.90;72.40;;;;;;5034295;28;20109;-78
2023/03/14 01:25:01;;;;;;;0.40;0.28;;;16.80;72.10;;;;;;5000726;28;20412;-78
2023/03/14 01:27:27;;;;;;;0.50;0.40;;;16.90;71.90;;;;;;5003348;28;20478;-78
2023/03/14 01:29:52;;;;;;;0.73;0.40;;;16.80;71.80;;;;;;5003440;28;20483;-78
2023/03/14 01:32:18;;;;;;;0.30;0.30;;;16.90;71.90;;;;;;5033223;28;20125;-78
2023/03/14 01:34:44;;;;;;;0.68;0.43;;;16.80;71.80;;;;;;5004242;28;20042;-77
2023/03/14 01:37:11;;;;;;;0.47;0.40;;;16.80;71.80;;;;;;5002768;28;20045;-78
2023/03/14 01:39:37;;;;;;;0.43;0.43;;;16.80;72.20;;;;;;5002406;28;20128;-78
2023/03/14 01:42:03;;;;;;;0.70;0.40;;;16.80;71.80;;;;;;5004480;28;20133;-78
2023/03/14 01:44:45;;;;;;;0.35;0.30;;;16.80;71.80;;;;;;4987289;28;20399;-78
2023/03/14 01:47:11;;;;;;;0.50;0.40;;;16.80;71.50;;;;;;5002971;28;20042;-78
2023/03/14 01:49:36;;;;;;;0.40;0.20;;;16.80;71.80;;;;;;5002754;28;20046;-77
2023/03/14 01:52:34;;;;;;;0.40;0.30;;;16.80;71.80;;;;;;4984671;28;20062;-78
2023/03/14 01:55:06;;;;;;;0.40;0.40;;;16.80;71.60;;;;;;4998127;28;20050;-78
2023/03/14 01:57:33;;;;;;;0.63;0.40;;;16.80;71.60;;;;;;5002174;28;20131;-78
2023/03/14 02:00:11;;;;;;;0.50;0.32;;;16.80;71.70;;;;;;4986278;28;20739;-78
2023/03/14 02:02:37;;;;;;;0.45;0.40;;;16.80;71.50;;;;;;5003686;28;20392;-77
2023/03/14 02:05:03;;;;;;;1.30;0.40;;;16.80;71.70;;;;;;4974824;28;20121;-78
2023/03/14 02:07:57;;;;;;;1.05;0.40;;;16.80;71.60;;;;;;5023671;28;20140;-78
2023/03/14 02:10:25;;;;;;;0.32;0.30;;;16.80;71.60;;;;;;5036677;28;20045;-78
2023/03/14 02:12:51;;;;;;;0.70;0.40;;;16.80;71.70;;;;;;5023285;28;20136;-78
2023/03/14 02:15:17;;;;;;;0.30;0.30;;;16.80;71.70;;;;;;4989143;28;20057;-78
2023/03/14 02:17:42;;;;;;;0.35;0.30;;;16.80;71.80;;;;;;5007668;28;20053;-78
2023/03/14 02:20:11;;;;;;;0.32;0.32;;;16.80;72.30;;;;;;4990204;28;20085;-78
2023/03/14 02:22:37;;;;;;;0.68;0.68;;;16.80;71.70;;;;;;5005799;28;20108;-78
2023/03/14 02:25:40;;;;;;;0.30;0.30;;;16.80;71.50;;;;;;4991247;28;20045;-78
2023/03/14 02:28:06;;;;;;;0.20;0.20;;;16.80;71.80;;;;;;5007034;28;20057;-78
2023/03/14 02:30:32;;;;;;;0.47;0.35;;;16.80;71.80;;;;;;5006837;28;20042;-78
2023/03/14 02:33:06;;;;;;;0.40;0.40;;;16.80;72.00;;;;;;5007841;28;20068;-78
2023/03/14 02:35:45;;;;;;;;;;;16.80;71.80;;;;;;4988823;28;20067;-78
2023/03/14 02:38:20;;;;;;;0.93;0.55;;;16.70;71.80;;;;;;5035143;28;19918;-78
2023/03/14 02:40:46;;;;;;;0.30;0.28;;;16.70;71.70;;;;;;4989054;28;20616;-78
2023/03/14 02:43:12;;;;;;;0.63;0.40;;;16.70;71.80;;;;;;5004347;28;20149;-78
2023/03/14 02:45:38;;;;;;;0.50;0.50;;;16.70;71.70;;;;;;5007504;28;20096;-78
2023/03/14 02:48:07;;;;;;;0.40;0.40;;;16.70;71.80;;;;;;5006646;28;20512;-78
2023/03/14 02:50:33;;;;;;;0.82;0.50;;;16.70;71.70;;;;;;5005662;28;20046;-78
2023/03/14 02:52:59;;;;;;;1.13;0.40;;;16.70;71.70;;;;;;4987941;28;20038;-78
2023/03/14 02:55:26;;;;;;;0.30;0.30;;;16.70;71.90;;;;;;5006417;28;20104;-78
2023/03/14 02:57:52;;;;;;;0.30;0.30;;;16.70;71.70;;;;;;5008163;28;20048;-78
2023/03/14 03:00:18;;;;;;;0.50;0.50;;;16.70;71.70;;;;;;5004582;28;20041;-78
2023/03/14 03:02:44;;;;;;;0.50;0.32;;;16.70;71.70;;;;;;5005896;28;20053;-77
2023/03/14 03:05:09;;;;;;;0.30;0.30;;;16.70;71.80;;;;;;5004181;28;20050;-78
2023/03/14 03:07:35;;;;;;;0.57;0.40;;;16.70;71.80;;;;;;5006619;28;20060;-78
2023/03/14 03:10:00;;;;;;;0.40;0.38;;;16.70;71.70;;;;;;5007580;28;20045;-78
2023/03/14 03:12:26;;;;;;;0.38;0.17;;;16.70;71.70;;;;;;5006115;28;20499;-78
2023/03/14 03:14:52;;;;;;;0.40;0.38;;;16.70;71.70;;;;;;5006165;28;20042;-78
2023/03/14 03:17:17;;;;;;;0.57;0.40;;;16.70;71.70;;;;;;5006764;28;20065;-78
2023/03/14 03:19:43;;;;;;;0.50;0.30;;;16.70;71.90;;;;;;5006405;28;20526;-78
2023/03/14 03:22:08;;;;;;;0.45;0.40;;;16.70;71.70;;;;;;5006520;28;20113;-78
2023/03/14 03:24:34;;;;;;;0.38;0.28;;;16.70;71.70;;;;;;5006106;28;20053;-78
2023/03/14 03:26:59;;;;;;;0.57;0.30;;;16.70;71.70;;;;;;5006404;28;20030;-78
2023/03/14 03:29:25;;;;;;;0.52;0.40;;;16.70;71.70;;;;;;5004583;28;20052;-78
2023/03/14 03:31:51;;;;;;;0.50;0.47;;;16.70;71.80;;;;;;5006301;28;20220;-78
2023/03/14 03:34:16;;;;;;;0.30;0.30;;;16.70;71.70;;;;;;5015621;28;20129;-78
2023/03/14 03:36:42;;;;;;;0.60;0.30;;;16.70;71.70;;;;;;5008477;28;20145;-78
2023/03/14 03:39:07;;;;;;;0.17;0.17;;;16.60;71.70;;;;;;5005429;28;20077;-78
2023/03/14 03:41:33;;;;;;;0.40;0.30;;;16.60;71.70;;;;;;5006613;28;20474;-78
2023/03/14 03:43:59;;;;;;;0.40;0.30;;;16.60;71.70;;;;;;5006086;28;20042;-78
2023/03/14 03:46:24;;;;;;;0.30;0.30;;;16.60;71.70;;;;;;5005715;28;20052;-77
2023/03/14 03:48:57;;;;;;;0.45;0.30;;;16.60;71.80;;;;;;5007166;28;20053;-78
2023/03/14 03:51:23;;;;;;;0.47;0.40;;;16.70;72.50;;;;;;5004485;28;20042;-78
2023/03/14 03:53:48;;;;;;;0.35;0.22;;;16.60;71.70;;;;;;5006213;28;20042;-78
2023/03/14 03:56:14;;;;;;;0.85;0.20;;;16.60;71.70;;;;;;5004257;28;20137;-78
2023/03/14 03:58:39;;;;;;;0.30;0.20;;;16.60;71.80;;;;;;5004382;28;20112;-78
2023/03/14 04:01:06;;;;;;;0.17;0.10;;;16.60;71.70;;;;;;5006486;28;20092;-78
2023/03/14 04:03:32;;;;;;;0.20;0.20;;;16.60;71.70;;;;;;5005637;28;20103;-78
2023/03/14 04:06:02;;;;;;;0.25;0.20;;;16.60;71.90;;;;;;5004337;28;20103;-78
2023/03/14 04:08:28;;;;;;;0.50;0.50;;;16.70;71.70;;;;;;5004271;28;20054;-78
2023/03/14 04:10:58;;;;;;;0.57;0.40;;;16.60;71.70;;;;;;5005699;28;20063;-78
2023/03/14 04:13:24;;;;;;;0.32;0.32;;;16.60;71.70;;;;;;5004349;28;20419;-78
2023/03/14 04:15:50;;;;;;;0.52;0.30;;;16.60;71.70;;;;;;5007101;28;20050;-78
2023/03/14 04:18:16;;;;;;;0.57;0.35;;;16.60;71.70;;;;;;5005137;28;20482;-78
2023/03/14 04:20:41;;;;;;;0.50;0.40;;;16.60;71.70;;;;;;5004296;28;20515;-78
2023/03/14 04:23:07;;;;;;;0.40;0.40;;;16.60;71.70;;;;;;5005719;28;20045;-78
2023/03/14 04:25:32;;;;;;;0.20;0.20;;;16.60;71.70;;;;;;5004009;28;20073;-78
2023/03/14 04:27:58;;;;;;;0.60;0.28;;;16.60;71.70;;;;;;5005772;28;20491;-78
2023/03/14 04:30:23;;;;;;;0.38;0.38;;;16.60;71.70;;;;;;5005773;28;20042;-78
2023/03/14 04:32:49;;;;;;;0.40;0.30;;;16.60;71.70;;;;;;5006925;28;20050;-78
2023/03/14 04:35:15;;;;;;;0.40;0.40;;;16.60;71.60;;;;;;5004394;28;20442;-78
2023/03/14 04:37:43;;;;;;;0.22;0.20;;;16.60;71.70;;;;;;5000963;28;20500;-78
2023/03/14 04:40:09;;;;;;;0.50;0.50;;;16.60;71.70;;;;;;5004449;28;20054;-78
2023/03/14 04:42:35;;;;;;;0.40;0.40;;;16.60;71.70;;;;;;5004365;28;20037;-77
2023/03/14 04:45:00;;;;;;;0.30;0.30;;;16.60;71.60;;;;;;5004356;28;20095;-77
2023/03/14 04:47:26;;;;;;;0.22;0.20;;;16.60;71.50;;;;;;5004906;28;20133;-78
2023/03/14 04:49:51;;;;;;;0.60;0.25;;;16.60;71.50;;;;;;5005759;28;20045;-78
2023/03/14 04:52:17;;;;;;;0.65;0.30;;;16.60;71.50;;;;;;5005721;28;20120;-78
2023/03/14 04:54:43;;;;;;;0.75;0.43;;;16.60;71.50;;;;;;5005078;28;20120;-78
2023/03/14 04:57:08;;;;;;;0.35;0.20;;;16.60;71.50;;;;;;5006041;28;20038;-78
2023/03/14 04:59:34;;;;;;;0.30;0.30;;;16.60;71.50;;;;;;5004849;28;20076;-78
2023/03/14 05:01:59;;;;;;;0.20;0.17;;;16.60;71.40;;;;;;5004653;28;20033;-78
2023/03/14 05:04:25;;;;;;;0.77;0.38;;;16.60;71.50;;;;;;5004444;28;20100;-78
2023/03/14 05:06:50;;;;;;;0.30;0.20;;;16.60;71.50;;;;;;5006818;28;20066;-78
2023/03/14 05:09:17;;;;;;;1.23;0.20;;;16.50;71.40;;;;;;5006346;28;20486;-78
2023/03/14 05:11:42;;;;;;;0.50;0.30;;;16.50;71.60;;;;;;5020849;28;20053;-78
2023/03/14 05:14:08;;;;;;;0.50;0.20;;;16.50;71.60;;;;;;5003649;28;20053;-78
2023/03/14 05:16:33;;;;;;;0.68;0.30;;;16.50;71.50;;;;;;5004701;28;20041;-78
2023/03/14 05:19:01;;;;;;;0.40;0.30;;;16.60;71.50;;;;;;5006257;28;20068;-78
2023/03/14 05:21:26;;;;;;;0.20;0.20;;;16.60;71.40;;;;;;5006988;28;20055;-78
2023/03/14 05:23:52;;;;;;;0.10;0.10;;;16.50;71.40;;;;;;5005387;28;20566;-78
2023/03/14 05:26:18;;;;;;;0.47;0.20;;;16.50;71.60;;;;;;5004167;28;20049;-78
2023/03/14 05:28:43;;;;;;;0.40;0.22;;;16.50;71.60;;;;;;5004825;28;20044;-78
2023/03/14 05:31:09;;;;;;;0.30;0.30;;;16.50;71.40;;;;;;5004689;28;20145;-78
2023/03/14 05:33:35;;;;;;;0.40;0.40;;;16.50;71.60;;;;;;5003416;28;20038;-78
2023/03/14 05:36:00;;;;;;;0.30;0.30;;;16.50;71.50;;;;;;5003570;28;20040;-78
2023/03/14 05:38:26;;;;;;;0.20;0.20;;;16.50;71.60;;;;;;5008460;28;20491;-78
2023/03/14 05:40:52;;;;;;;0.32;0.32;;;16.50;71.40;;;;;;5008144;28;20120;-78
2023/03/14 05:43:17;;;;;;;0.40;0.35;;;16.50;71.60;;;;;;5009214;28;20049;-78
2023/03/14 05:45:43;;;;;;;0.55;0.40;;;16.50;71.30;;;;;;5007921;28;20065;-78
2023/03/14 05:48:09;;;;;;;0.30;0.20;;;16.50;71.30;;;;;;5021213;28;20065;-78
2023/03/14 05:50:34;;;;;;;0.40;0.20;;;16.50;71.30;;;;;;5007691;28;20499;-78
2023/03/14 05:53:00;;;;;;;0.45;0.22;;;16.50;71.30;;;;;;5005336;28;20507;-78
2023/03/14 05:55:25;;;;;;;1.27;0.17;;;16.50;71.20;;;;;;5008185;28;20041;-78
2023/03/14 05:57:52;;;;;;;0.50;0.40;;;16.50;71.30;;;;;;5010594;28;20532;-78
2023/03/14 06:00:18;;;;;;;0.40;0.30;;;16.50;71.20;;;;;;5004541;28;20116;-78
2023/03/14 06:02:44;;;;;;;0.35;0.30;;;16.50;71.30;;;;;;5007059;28;20033;-78
2023/03/14 06:05:09;;;;;;;0.40;0.35;;;16.50;71.30;;;;;;5006756;28;20116;-78
2023/03/14 06:07:35;;;;;;;0.28;0.28;;;16.50;71.20;;;;;;5006793;28;20058;-78
2023/03/14 06:10:00;;;;;;;0.63;0.30;;;16.50;71.40;;;;;;5010635;28;20051;-78
2023/03/14 06:12:26;;;;;;;0.55;0.30;;;16.50;71.40;;;;;;5008853;28;20412;-78
2023/03/14 06:14:51;;;;;;;0.20;0.20;;;16.50;71.50;;;;;;5007290;28;20100;-78
2023/03/14 06:17:17;;;;;;;0.32;0.20;;;16.50;71.40;;;;;;5006464;28;20050;-77
2023/03/14 06:19:42;;;;;;;0.30;0.20;;;16.50;71.30;;;;;;5007586;28;20515;-78
2023/03/14 06:22:08;;;;;;;0.90;0.30;;;16.50;71.70;;;;;;5006029;28;20054;-78
2023/03/14 06:24:34;;;;;;;0.60;0.40;;;16.50;71.10;;;;;;5007605;28;20038;-78
2023/03/14 06:26:59;;;;;;;1.75;0.30;;;16.50;71.30;;;;;;5009828;28;20415;-78
2023/03/14 06:29:25;;;;;;;1.25;0.40;;;16.60;71.40;;;;;;5007351;28;20069;-78
2023/03/14 06:31:50;;;;;;;0.63;0.30;;;16.60;71.40;;;;;;5007211;28;20052;-78
2023/03/14 06:34:16;;;;;;;0.70;0.40;;;16.50;71.00;;;;;;5006242;28;20045;-80
2023/03/14 06:36:41;;;;;;;0.50;0.32;;;16.50;71.90;;;;;;4999988;28;20573;-80
2023/03/14 06:39:07;;;;;;;0.32;0.30;;;16.50;71.50;;;;;;5006299;28;20042;-78
2023/03/14 06:41:33;;;;;;;0.50;0.40;;;16.60;71.60;;;;;;5006477;28;20495;-78
2023/03/14 06:43:58;;;;;;;1.02;0.40;;;16.50;71.90;;;;;;5003784;28;20474;-80
2023/03/14 06:46:24;;;;;;;0.95;0.30;;;16.50;71.30;;;;;;5006539;28;20492;-78
2023/03/14 06:48:49;;;;;;;1.02;0.95;;;16.50;72.10;;;;;;5007942;28;20045;-78
2023/03/14 06:51:15;;;;;;;0.60;0.30;;;16.50;72.20;;;;;;5007590;28;20048;-79
2023/03/14 06:53:40;;;;;;;1.55;0.50;;;16.40;72.00;;;;;;5005536;28;20065;-79
2023/03/14 06:56:07;;;;;;;3.92;0.60;;;16.40;70.70;;;;;;5005525;28;20112;-80
2023/03/14 06:58:32;;;;;;;0.93;0.50;;;16.40;71.10;;;;;;5006262;28;20081;-80
2023/03/14 07:00:58;;;;;;;1.77;0.60;;;16.30;69.70;;;;;;5006069;28;20080;-79
2023/03/14 07:03:24;;;;;;;1.75;0.50;;;16.30;69.00;;;;;;5007775;28;20510;-79
2023/03/14 07:05:50;;;;;;;2.92;0.60;;;16.30;68.90;;;;;;5005867;28;20048;-80
2023/03/14 07:08:15;;;;;;;2.75;0.75;;;16.40;69.00;;;;;;5004685;28;20045;-81
2023/03/14 07:10:41;;;;;;;2.35;0.47;;;16.40;69.10;;;;;;5001228;28;20046;-80
2023/03/14 07:13:06;;;;;;;3.13;0.70;;;16.40;70.40;;;;;;5002798;28;21100;-81
2023/03/14 07:15:32;;;;;;;1.95;0.60;;;16.50;70.10;;;;;;5004494;28;20096;-79
2023/03/14 07:17:57;;;;;;;1.55;0.50;;;16.50;69.80;;;;;;5004994;28;20046;-80
2023/03/14 07:20:23;;;;;;;1.33;0.80;;;16.40;70.30;;;;;;5003519;28;20045;-79
2023/03/14 07:22:49;;;;;;;2.40;0.63;;;16.40;70.30;;;;;;5004108;28;20474;-80
2023/03/14 07:25:15;;;;;;;1.55;0.90;;;16.30;70.40;;;;;;5016804;28;20104;-80
2023/03/14 07:27:42;;;;;;;1.98;0.70;;;16.30;69.40;;;;;;5003076;28;20061;-79
2023/03/14 07:30:08;;;;;;;4.25;1.00;;;16.40;68.90;;;;;;5002799;28;20126;-82
2023/03/14 07:32:34;;;;;;;4.97;1.00;;;16.30;68.80;;;;;;5002668;28;20040;-83
2023/03/14 07:34:59;;;;;;;4.05;1.17;;;16.30;67.90;;;;;;5006045;28;20058;-83
2023/03/14 07:37:25;;;;;;;3.88;1.40;;;16.30;67.80;;;;;;5006039;28;20104;-80
2023/03/14 07:39:51;;;;;;;4.90;0.82;;;16.40;66.40;;;;;;5006311;28;20049;-80
2023/03/14 07:42:16;;;;;;;3.53;1.30;;;16.50;65.90;;;;;;5005622;28;20033;-80
2023/03/14 07:44:42;;;;;;;3.50;1.10;;;16.40;65.50;;;;;;5006216;28;20038;-80
2023/03/14 07:47:07;;;;;;;4.13;1.20;;;16.40;65.80;;;;;;5008061;28;20038;-80
2023/03/14 07:49:33;;;;;;;3.25;0.80;;;16.40;66.20;;;;;;5007114;28;20480;-79
2023/03/14 07:51:59;;;;;;;1.67;0.65;;;16.40;66.80;;;;;;5003968;28;20042;-79
2023/03/14 07:54:24;;;;;;;2.30;0.90;;;16.40;67.60;;;;;;5007700;28;20053;-79
2023/03/14 07:56:51;;;;;;;2.95;0.75;;;16.50;67.30;;;;;;5006774;28;22350;-78
2023/03/14 07:59:17;;;;;;;2.95;0.80;;;16.50;67.40;;;;;;5003523;28;20065;-79
2023/03/14 08:01:43;;;;;;;2.22;0.50;;;16.50;67.50;;;;;;5005864;28;20578;-79
2023/03/14 08:04:09;;;;;;;1.15;0.63;;;16.40;67.40;;;;;;4989843;28;20458;-79
2023/03/14 08:06:35;;;;;;;4.95;0.60;;;16.50;67.50;;;;;;5007457;28;20123;-79
2023/03/14 08:09:01;;;;;;;1.65;0.75;;;16.50;67.60;;;;;;5005903;28;20085;-79
2023/03/14 08:11:27;;;;;;;1.10;0.60;;;16.40;67.60;;;;;;5006737;28;20087;-79
2023/03/14 08:13:52;;;;;;;1.95;0.82;;;16.40;67.90;;;;;;5005029;28;20593;-80
2023/03/14 08:16:18;;;;;;;1.60;1.10;;;16.40;68.00;;;;;;5004309;28;20030;-79
2023/03/14 08:18:44;;;;;;;1.63;0.90;;;16.40;68.00;;;;;;5007105;28;20060;-80
2023/03/14 08:21:10;;;;;;;1.35;0.52;;;16.40;68.00;;;;;;5004469;28;20053;-79
2023/03/14 08:23:35;;;;;;;2.10;0.82;;;16.40;68.00;;;;;;5006109;28;20042;-79
2023/03/14 08:26:01;;;;;;;3.28;0.70;;;16.40;68.00;;;;;;5004681;28;20066;-78
2023/03/14 08:28:30;;;;;;;1.73;0.80;;;16.40;67.90;;;;;;5005732;28;20129;-79
2023/03/14 08:30:56;;;;;;;2.92;0.70;;;16.50;67.90;;;;;;5006535;28;20403;-79
2023/03/14 08:33:22;;;;;;;3.42;0.90;;;16.60;68.00;;;;;;5007209;28;20136;-79
2023/03/14 08:35:48;;;;;;;1.17;0.77;;;16.70;68.00;;;;;;5004279;28;20180;-80
2023/03/14 08:38:14;;;;;;;1.70;0.80;;;16.70;67.80;;;;;;5005315;28;20030;-79
2023/03/14 08:40:39;;;;;;;1.38;0.80;;;16.70;67.80;;;;;;5005987;28;20046;-80
2023/03/14 08:43:05;;;;;;;2.42;0.75;;;16.60;67.90;;;;;;5006669;28;20049;-80
2023/03/14 08:45:30;;;;;;;1.00;0.55;;;16.60;68.10;;;;;;5006609;28;20089;-80
2023/03/14 08:47:57;;;;;;;1.63;0.63;;;16.60;68.20;;;;;;5005278;28;20050;-80
2023/03/14 08:50:24;;;;;;;1.90;0.77;;;16.60;68.10;;;;;;5006358;28;20049;-80
2023/03/14 08:52:49;;;;;;;2.08;0.90;;;16.60;68.30;;;;;;5005854;28;20041;-79
2023/03/14 08:55:15;;;;;;;0.98;0.70;;;16.70;68.20;;;;;;5004176;28;20053;-79
2023/03/14 08:57:40;;;;;;;3.58;1.08;;;16.70;68.20;;;;;;5008209;28;20486;-79
2023/03/14 09:00:14;;;;;;;1.17;0.50;;;16.70;68.20;;;;;;5008336;28;20049;-79
2023/03/14 09:02:40;;;;;;;0.98;0.70;;;16.70;68.20;;;;;;5039288;28;20045;-79
2023/03/14 09:05:07;;;;;;;1.08;0.50;;;16.80;67.90;;;;;;5006130;28;20084;-79
2023/03/14 09:07:32;;;;;;;2.83;0.63;;;16.90;67.90;;;;;;5006461;28;20542;-79
2023/03/14 09:09:58;;;;;;;1.25;0.70;;;16.90;67.90;;;;;;5005533;28;20050;-80
2023/03/14 09:12:23;;;;;;;1.33;0.70;;;16.90;68.10;;;;;;5007106;28;20050;-80
2023/03/14 09:14:49;;;;;;;1.52;0.68;;;16.90;68.60;;;;;;5004337;28;20043;-80
2023/03/14 09:17:14;;;;;;;2.95;0.50;;;16.80;68.70;;;;;;5005832;28;20053;-80
2023/03/14 09:19:40;;;;;;;1.45;0.50;;;16.90;68.80;;;;;;5005955;28;20026;-80
2023/03/14 09:22:06;;;;;;;2.03;0.77;;;16.90;69.00;;;;;;5006274;28;20120;-80
2023/03/14 09:24:31;;;;;;;3.45;0.73;;;16.90;69.10;;;;;;5003203;28;20107;-80
2023/03/14 09:26:58;;;;;;;1.13;0.68;;;16.90;69.30;;;;;;5004446;28;20042;-80
2023/03/14 09:29:24;;;;;;;2.67;0.60;;;16.90;69.20;;;;;;5005724;28;20066;-80
2023/03/14 09:31:50;;;;;;;1.48;0.50;;;16.90;69.30;;;;;;5005303;28;20546;-80
2023/03/14 09:34:15;;;;;;;1.05;0.63;;;16.90;69.30;;;;;;5005318;28;20077;-80
2023/03/14 09:36:43;;;;;;;0.65;0.40;;;17.00;69.30;;;;;;5006547;28;20088;-81
2023/03/14 09:39:09;;;;;;;1.52;0.70;;;16.90;69.30;;;;;;5005908;28;20042;-79
2023/03/14 09:41:37;;;;;;;2.92;0.45;;;17.00;69.40;;;;;;5004803;28;20042;-80
2023/03/14 09:44:17;;;;;;;2.17;0.55;;;17.00;69.40;;;;;;5004232;28;20132;-80
2023/03/14 09:46:44;;;;;;;0.90;0.57;;;17.00;69.50;;;;;;4988486;28;20251;-79
2023/03/14 09:49:31;;;;;;;0.85;0.40;;;17.00;69.60;;;;;;5005311;28;20463;-80
2023/03/14 09:51:59;;;;;;;0.73;0.50;;;16.90;69.60;;;;;;5004886;28;20180;-80
2023/03/14 09:54:36;;;;;;;1.27;0.80;;;16.90;69.60;;;;;;5004848;28;20046;-80
2023/03/14 09:57:02;;;;;;;0.50;0.35;;;17.00;69.70;;;;;;5003099;28;20057;-80
2023/03/14 09:59:28;;;;;;;0.88;0.38;;;17.00;69.70;;;;;;5004124;28;20521;-80
2023/03/14 10:01:59;;;;;;;0.60;0.30;;;17.00;69.60;;;;;;5004447;28;20042;-80
2023/03/14 10:04:25;;;;;;;0.80;0.35;;;17.00;69.60;;;;;;4988631;28;20438;-80
2023/03/14 10:06:51;;;;;;;1.05;0.57;;;17.00;69.80;;;;;;5020901;28;20042;-80
2023/03/14 10:09:27;;;;;;;1.58;0.57;;;17.00;69.70;;;;;;5004178;28;20050;-80
2023/03/14 10:11:59;;;;;;;1.35;0.50;;;17.00;69.80;;;;;;5004836;28;20045;-79
2023/03/14 10:14:32;;;;;;;0.77;0.50;;;17.00;69.60;;;;;;5005916;28;20045;-80
2023/03/14 10:17:05;;;;;;;0.60;0.40;;;17.00;69.50;;;;;;5004714;28;20037;-80
2023/03/14 10:19:31;;;;;;;0.68;0.40;;;17.00;69.60;;;;;;5004677;28;20281;-80
2023/03/14 10:21:56;;;;;;;1.30;0.40;;;17.00;69.50;;;;;;5005857;28;20048;-80
2023/03/14 10:24:25;;;;;;;0.88;0.50;;;17.00;69.50;;;;;;5005880;28;20096;-80
2023/03/14 10:26:55;;;;;;;0.40;0.40;;;17.00;69.50;;;;;;5007327;28;20030;-80
2023/03/14 10:29:21;;;;;;;0.65;0.50;;;17.10;69.60;;;;;;5007185;28;20053;-80
2023/03/14 10:32:03;;;;;;;0.80;0.35;;;17.00;69.40;;;;;;5008320;28;20046;-80
2023/03/14 10:34:37;;;;;;;1.20;0.82;;;17.10;69.50;;;;;;5007591;28;20520;-80
2023/03/14 10:37:08;;;;;;;0.60;0.50;;;17.10;69.50;;;;;;5021429;28;20512;-80
2023/03/14 10:39:47;;;;;;;0.63;0.57;;;17.10;69.30;;;;;;5009698;28;20046;-80
2023/03/14 10:42:21;;;;;;;1.58;0.20;;;17.10;69.40;;;;;;4987759;28;20137;-80
2023/03/14 10:44:49;;;;;;;0.68;0.40;;;17.10;69.30;;;;;;4970218;28;20042;-80
2023/03/14 10:47:19;;;;;;;1.25;0.57;;;17.10;69.30;;;;;;4987851;28;20091;-80
2023/03/14 10:49:45;;;;;;;0.95;0.50;;;17.10;69.30;;;;;;5004247;28;20052;-80
2023/03/14 10:52:26;;;;;;;0.60;0.40;;;17.20;69.30;;;;;;5006707;28;20045;-80
2023/03/14 10:55:02;;;;;;;0.60;0.38;;;17.20;69.30;;;;;;5005746;28;20112;-80
2023/03/14 10:57:28;;;;;;;0.55;0.40;;;17.20;69.30;;;;;;5007751;28;20576;-79
2023/03/14 10:59:54;;;;;;;0.65;0.38;;;17.20;69.10;;;;;;5007310;28;20061;-80
2023/03/14 11:02:38;;;;;;;0.75;0.70;;;17.20;69.20;;;;;;5008212;28;20053;-80
2023/03/14 11:05:23;;;;;;;0.50;0.40;;;17.20;69.20;;;;;;5005481;28;20507;-79
2023/03/14 11:07:49;;;;;;;1.17;0.40;;;17.20;69.20;;;;;;5007189;28;20042;-80
2023/03/14 11:10:32;;;;;;;0.98;0.60;;;17.20;69.20;;;;;;4990268;28;20460;-80
2023/03/14 11:13:07;;;;;;;0.52;0.52;;;17.20;69.10;;;;;;5007933;28;20507;-80
2023/03/14 11:15:53;;;;;;;0.63;0.40;;;17.20;69.00;;;;;;5009727;28;20103;-80
2023/03/14 11:18:33;;;;;;;1.02;0.28;;;17.20;69.00;;;;;;4986697;28;20547;-79
2023/03/14 11:21:17;;;;;;;1.38;0.50;;;17.20;69.00;;;;;;4986391;28;20030;-80
2023/03/14 11:24:03;;;;;;;0.52;0.30;;;17.30;68.90;;;;;;5000941;28;20117;-80
2023/03/14 11:26:34;;;;;;;0.55;0.40;;;17.30;69.00;;;;;;5005760;28;20053;-80
2023/03/14 11:29:27;;;;;;;0.40;0.30;;;17.20;68.90;;;;;;5006927;28;20042;-80
2023/03/14 11:31:54;;;;;;;0.40;0.35;;;17.20;68.90;;;;;;4999964;28;20124;-80
2023/03/14 11:34:42;;;;;;;1.10;0.70;;;17.30;68.90;;;;;;4989557;28;20404;-80
2023/03/14 11:37:22;;;;;;;0.85;0.63;;;17.30;68.90;;;;;;5004994;28;20046;-79
2023/03/14 11:39:54;;;;;;;0.60;0.40;;;17.30;68.80;;;;;;5007845;28;20040;-80
2023/03/14 11:42:20;;;;;;;1.67;0.70;;;17.30;68.70;;;;;;4992320;28;20530;-80
2023/03/14 11:44:47;;;;;;;0.80;0.40;;;17.30;68.70;;;;;;5001068;28;20050;-80
2023/03/14 11:47:39;;;;;;;0.63;0.57;;;17.30;68.70;;;;;;5022597;28;20542;-80
2023/03/14 11:50:16;;;;;;;0.47;0.30;;;17.30;68.80;;;;;;5016400;28;20057;-80
2023/03/14 11:52:48;;;;;;;0.75;0.47;;;17.30;68.90;;;;;;5001331;28;20046;-80
2023/03/14 11:55:25;;;;;;;0.40;0.40;;;17.20;68.90;;;;;;5000535;28;20499;-80
2023/03/14 11:57:51;;;;;;;0.68;0.40;;;17.20;68.90;;;;;;5005421;28;20038;-80
2023/03/14 12:00:21;;;;;;;0.82;0.35;;;17.20;68.90;;;;;;5005407;28;20052;-80
2023/03/14 12:03:08;;;;;;;0.52;0.40;;;17.20;68.90;;;;;;5006609;28;20039;-80
2023/03/14 12:05:43;;;;;;;0.60;0.60;;;17.20;68.80;;;;;;5003506;28;20045;-80
2023/03/14 12:08:09;;;;;;;0.52;0.43;;;17.20;68.80;;;;;;5003248;28;20046;-80
2023/03/14 12:10:56;;;;;;;0.75;0.50;;;17.30;68.90;;;;;;5007145;28;20042;-80
2023/03/14 12:13:22;;;;;;;1.25;0.70;;;17.30;68.70;;;;;;5007254;28;20052;-80
2023/03/14 12:15:55;;;;;;;0.47;0.30;;;17.30;68.60;;;;;;5008362;28;20038;-80
2023/03/14 12:18:32;;;;;;;0.40;0.40;;;17.30;68.60;;;;;;5007406;28;20503;-80
2023/03/14 12:20:59;;;;;;;0.47;0.45;;;17.30;68.60;;;;;;4987175;28;20038;-80
2023/03/14 12:23:25;;;;;;;1.27;0.50;;;17.30;68.60;;;;;;5022629;28;20565;-80
2023/03/14 12:26:08;;;;;;;0.20;0.20;;;17.30;68.70;;;;;;5005969;28;20129;-80
2023/03/14 12:28:33;;;;;;;0.50;0.30;;;17.30;68.80;;;;;;5006820;28;20046;-80
2023/03/14 12:31:28;;;;;;;0.43;0.30;;;17.20;68.70;;;;;;5006002;28;20537;-79
2023/03/14 12:34:25;;;;;;;0.57;0.35;;;17.20;68.70;;;;;;5007610;28;20045;-80
2023/03/14 12:36:56;;;;;;;0.50;0.40;;;17.20;68.80;;;;;;5002649;28;20034;-79
2023/03/14 12:39:23;;;;;;;0.40;0.30;;;17.20;68.70;;;;;;5007256;28;20120;-79
2023/03/14 12:41:52;;;;;;;0.50;0.50;;;17.20;68.50;;;;;;5008250;28;20046;-79
2023/03/14 12:44:29;;;;;;;0.85;0.40;;;17.30;68.40;;;;;;5006467;28;20050;-80
2023/03/14 12:47:18;;;;;;;0.80;0.30;;;17.30;68.40;;;;;;5005112;28;20046;-80
2023/03/14 12:49:52;;;;;;;0.73;0.50;;;17.30;68.50;;;;;;4997472;28;20515;-80
2023/03/14 12:53:14;;;;;;;0.40;0.40;;;17.20;68.40;;;;;;5020247;28;20041;-79
2023/03/14 12:55:46;;;;;;;0.50;0.50;;;17.20;68.40;;;;;;4962409;28;20136;-80